Yorktown Express — WDD6127 — position and weather

sailwx.info

Track history (hours):
 
Tides and Currents Weather Stations Pressure Air Temp Water Temp Dewpoint Dewpoint Depression Visibility Wind Speed Wind Dir Waves Ship Positions

Yorktown Express

More information available from US FCC via Universal Licensing System and Coast Guard Vessel Documentation Center.

Last reported at 2014-Aug-30 18:00 UTC. Time now 2014-Aug-31 06:31 UTC.
Position N 39°24' W 036°36'.

Type: Ship. MMSI: 367168650.

Wind from 290 at 6 knots

Waves 1.0 meters (3 feet), 3 second period

Barometer 1016.0 mb
Air temperature 24.0 ° C
Visibility: greater than 10.8 NM
Dewpoint 21.0 ° C
Water temperature 27.0 ° C

Date/timePositionNaut miles runAvg speedWind from/ knotsBaromVisibWave heightAir tempDewpointWater temp
2014-Aug-30 18:00N 39°24' W 036°36'10918.2 290 / 61016.010.8 1.024.021.027.0
2014-Aug-30 12:00N 39°48' W 034°18'22618.9 280 / 201014.310.8 1.026.021.527.0
2014-Aug-30 00:00N 41°24' W 029°48'44818.7 230 / 151014.010.8 1.023.021.525.0
2014-Aug-29 00:00N 44°48' W 020°42'10818.1 290 / 121020.510.8 2.020.010.923.0
2014-Aug-28 18:00N 45°36' W 018°24'11118.5 290 / 301018.610.8 1.020.010.921.0
2014-Aug-28 12:00N 46°24' W 016°00'10617.7 290 / 281015.510.8 3.019.011.821.0
2014-Aug-28 06:00N 47°12' W 013°42'10116.9 280 / 351010.610.8 3.018.010.621.0
2014-Aug-28 00:00N 48°00' W 011°30'42017.9 270 / 291010.010.8 18.014.619.0
2014-Aug-27 00:32N 50°20' W 001°24'1919.4
2014-Aug-26 23:33N 50°33' W 001°02'1010.0
2014-Aug-26 22:33N 50°43' W 000°59'1313.2
2014-Aug-26 21:33N 50°47' W 001°19'7 7.4
2014-Aug-26 20:33N 50°54' W 001°25'2 0.7
2014-Aug-26 18:11N 50°54' W 001°27'0 0.0
2014-Aug-26 17:29N 50°54' W 001°27'0 0.0
2014-Aug-26 16:26N 50°54' W 001°27'0 0.0
2014-Aug-26 15:32N 50°54' W 001°27'0 0.0
2014-Aug-26 14:32N 50°54' W 001°27'0 0.0
2014-Aug-26 13:32N 50°54' W 001°27'0 0.0
2014-Aug-26 12:32N 50°54' W 001°27'0 0.0
2014-Aug-26 11:32N 50°54' W 001°27'0 0.0
2014-Aug-26 10:32N 50°54' W 001°27'0 0.0
2014-Aug-26 09:14N 50°54' W 001°27'0 0.0
2014-Aug-26 08:32N 50°54' W 001°27'0 0.0
2014-Aug-26 07:32N 50°54' W 001°27'0 0.0
2014-Aug-26 06:32N 50°54' W 001°27'2 2.1
2014-Aug-26 05:33N 50°53' W 001°24'9 8.5
2014-Aug-26 04:33N 50°47' W 001°17'1313.0
2014-Aug-26 03:33N 50°42' W 000°57'7 6.7
2014-Aug-26 02:33N 50°36' W 000°53'9 9.3
2014-Aug-26 01:33N 50°35' W 000°39'1915.1
2014-Aug-26 00:19N 50°33' W 000°10'1215.6
2014-Aug-25 23:33N 50°33' E 000°09'1514.7
2014-Aug-25 22:33N 50°34' E 000°32'1414.1
2014-Aug-25 21:33N 50°41' E 000°51'3215.8
2014-Aug-25 19:34N 51°02' E 001°30'1818.2
2014-Aug-25 18:33N 51°16' E 001°49'1717.0
2014-Aug-25 17:33N 51°30' E 002°04'1615.9
2014-Aug-25 16:33N 51°42' E 002°20'10915.3
2014-Aug-25 09:28N 53°05' E 004°16'2117.2
2014-Aug-25 08:16N 53°23' E 004°33'1215.7
2014-Aug-25 07:31N 53°31' E 004°47'1515.8
2014-Aug-25 06:34N 53°36' E 005°12'1615.9
2014-Aug-25 05:34N 53°40' E 005°37'1716.5
2014-Aug-25 04:33N 53°46' E 006°04'5417.9
2014-Aug-25 01:33N 53°59' E 007°32'1313.1
2014-Aug-25 00:33N 53°53' E 007°51'1515.3
2014-Aug-24 23:33N 53°45' E 008°13'1413.9
2014-Aug-24 22:33N 53°36' E 008°31'1 0.7
2014-Aug-24 21:31N 53°35' E 008°32'0 0.0
2014-Aug-24 20:31N 53°35' E 008°32'0 0.0
2014-Aug-24 19:31N 53°35' E 008°32'0 0.0
2014-Aug-24 18:31N 53°35' E 008°32'0 0.0
2014-Aug-24 17:31N 53°35' E 008°32'0 0.0
2014-Aug-24 16:31N 53°35' E 008°32'0 0.0
2014-Aug-24 15:31N 53°35' E 008°32'0 0.0
2014-Aug-24 14:31N 53°35' E 008°32'0 0.0
2014-Aug-24 13:31N 53°35' E 008°32'0 0.0
2014-Aug-24 12:31N 53°35' E 008°32'0 0.0
2014-Aug-24 11:31N 53°35' E 008°32'0 0.0
2014-Aug-24 10:31N 53°35' E 008°32'0 0.0
2014-Aug-24 09:28N 53°35' E 008°32'0 0.0
2014-Aug-24 08:31N 53°35' E 008°32'0 0.0
2014-Aug-24 07:31N 53°35' E 008°32'0 0.0
2014-Aug-24 06:31N 53°35' E 008°32'0 0.0
2014-Aug-24 05:31N 53°35' E 008°32'0 0.0
2014-Aug-24 04:31N 53°35' E 008°32'0 0.0
2014-Aug-24 03:31N 53°35' E 008°32'0 0.0
2014-Aug-24 02:31N 53°35' E 008°32'0 0.0
2014-Aug-24 01:31N 53°35' E 008°32'0 0.0
2014-Aug-24 00:31N 53°35' E 008°32'0 0.0
2014-Aug-23 23:31N 53°35' E 008°32'0 0.0
2014-Aug-23 22:31N 53°35' E 008°32'0 0.0
2014-Aug-23 21:31N 53°35' E 008°32'0 0.0
2014-Aug-23 20:31N 53°35' E 008°32'0 0.0
2014-Aug-23 19:31N 53°35' E 008°32'19812.4
2014-Aug-23 03:33N 52°17' E 003°29'2019.6
2014-Aug-23 02:32N 51°57' E 003°23'1717.3
2014-Aug-23 01:33N 51°42' E 003°12'1818.1
2014-Aug-23 00:33N 51°25' E 002°60'1716.9
2014-Aug-22 23:33N 51°25' E 003°27'1010.0
2014-Aug-22 22:33N 51°24' E 003°43'9 9.2
2014-Aug-22 21:33N 51°24' E 003°57'8 8.3
2014-Aug-22 20:33N 51°24' E 004°11'5 5.1
2014-Aug-22 19:33N 51°20' E 004°17'0 0.0
2014-Aug-22 18:33N 51°20' E 004°17'0 0.0
2014-Aug-22 17:33N 51°20' E 004°17'0 0.0
2014-Aug-22 16:33N 51°20' E 004°17'0 0.0
2014-Aug-22 15:33N 51°20' E 004°17'0 0.0
2014-Aug-22 14:33N 51°20' E 004°17'0 0.0
2014-Aug-22 13:33N 51°20' E 004°17'0 0.0
2014-Aug-22 12:33N 51°20' E 004°17'0 0.0
2014-Aug-22 11:33N 51°20' E 004°17'0 0.0
2014-Aug-22 10:33N 51°20' E 004°17'0 0.0
2014-Aug-22 09:33N 51°20' E 004°17'0 0.0
2014-Aug-22 08:33N 51°20' E 004°17'0 0.0
2014-Aug-22 07:33N 51°20' E 004°17'0 0.0
2014-Aug-22 06:33N 51°20' E 004°17'0 0.0
2014-Aug-22 05:33N 51°20' E 004°17'0 0.0
2014-Aug-22 04:33N 51°20' E 004°17'0 0.0
2014-Aug-22 03:33N 51°20' E 004°17'0 0.0
2014-Aug-22 02:33N 51°20' E 004°17'0 0.0
2014-Aug-22 01:33N 51°20' E 004°17'0 0.0
2014-Aug-22 00:33N 51°20' E 004°17'0 0.0
2014-Aug-21 23:33N 51°20' E 004°17'0 0.0
2014-Aug-21 22:33N 51°20' E 004°17'0 0.0
2014-Aug-21 21:33N 51°20' E 004°17'0 0.0
2014-Aug-21 20:33N 51°20' E 004°17'0 0.0
2014-Aug-21 19:33N 51°20' E 004°17'2 2.2
2014-Aug-21 18:33N 51°22' E 004°14'8 8.2
2014-Aug-21 17:33N 51°25' E 004°02'10 9.7
2014-Aug-21 16:33N 51°21' E 003°48'10 9.8
2014-Aug-21 15:33N 51°25' E 003°33'1413.9
2014-Aug-21 14:34N 51°24' E 003°11'1616.0
2014-Aug-21 13:34N 51°24' E 002°46'7 6.8
2014-Aug-21 12:31N 51°25' E 002°34'0 0.3
2014-Aug-21 11:29N 51°25' E 002°35'0 0.0
2014-Aug-21 10:17N 51°25' E 002°35'0 0.0
2014-Aug-21 09:29N 51°25' E 002°35'0 0.0
2014-Aug-21 08:32N 51°25' E 002°35'0 0.1
2014-Aug-21 07:32N 51°25' E 002°35'0 0.2
2014-Aug-21 06:32N 51°25' E 002°34'0 0.0
2014-Aug-21 05:32N 51°25' E 002°34'0 0.1
2014-Aug-21 04:32N 51°25' E 002°34'7 7.1
2014-Aug-21 03:33N 51°21' E 002°25'1312.8
2014-Aug-21 02:32N 51°14' E 002°08'1313.1
2014-Aug-21 01:33N 51°08' E 001°50'1313.2
2014-Aug-21 00:33N 50°59' E 001°34'1613.7
2014-Aug-20 23:23N 50°45' E 001°23'1613.5
2014-Aug-20 22:10N 50°33' E 001°05'813.3
2014-Aug-20 21:33N 50°29' E 000°54'1713.9
2014-Aug-20 20:19N 50°25' E 000°28'1114.1
2014-Aug-20 19:33N 50°22' E 000°12'  
Track history (hours):
 
Tides and Currents Weather Stations Pressure Air Temp Water Temp Dewpoint Dewpoint Depression Visibility Wind Speed Wind Dir Waves Ship Positions

Yorktown Express

More information available from US FCC via Universal Licensing System and Coast Guard Vessel Documentation Center.

Last reported at 2014-Aug-30 18:00 UTC. Time now 2014-Aug-31 06:31 UTC.
Position N 39°24' W 036°36'.

Type: Ship. MMSI: 367168650.

Wind from 290 at 6 knots

Waves 1.0 meters (3 feet), 3 second period

Barometer 1016.0 mb
Air temperature 24.0 ° C
Visibility: greater than 10.8 NM
Dewpoint 21.0 ° C
Water temperature 27.0 ° C

Date/timePositionNaut miles runAvg speedWind from/ knotsBaromVisibWave heightAir tempDewpointWater temp
2014-Aug-30 18:00N 39°24' W 036°36'10918.2 290 / 61016.010.8 1.024.021.027.0
2014-Aug-30 12:00N 39°48' W 034°18'22618.9 280 / 201014.310.8 1.026.021.527.0
2014-Aug-30 00:00N 41°24' W 029°48'44818.7 230 / 151014.010.8 1.023.021.525.0
2014-Aug-29 00:00N 44°48' W 020°42'10818.1 290 / 121020.510.8 2.020.010.923.0
2014-Aug-28 18:00N 45°36' W 018°24'11118.5 290 / 301018.610.8 1.020.010.921.0
2014-Aug-28 12:00N 46°24' W 016°00'10617.7 290 / 281015.510.8 3.019.011.821.0
2014-Aug-28 06:00N 47°12' W 013°42'10116.9 280 / 351010.610.8 3.018.010.621.0
2014-Aug-28 00:00N 48°00' W 011°30'42017.9 270 / 291010.010.8 18.014.619.0
2014-Aug-27 00:32N 50°20' W 001°24'1919.4
2014-Aug-26 23:33N 50°33' W 001°02'1010.0
2014-Aug-26 22:33N 50°43' W 000°59'1313.2
2014-Aug-26 21:33N 50°47' W 001°19'7 7.4
2014-Aug-26 20:33N 50°54' W 001°25'2 0.7
2014-Aug-26 18:11N 50°54' W 001°27'0 0.0
2014-Aug-26 17:29N 50°54' W 001°27'0 0.0
2014-Aug-26 16:26N 50°54' W 001°27'0 0.0
2014-Aug-26 15:32N 50°54' W 001°27'0 0.0
2014-Aug-26 14:32N 50°54' W 001°27'0 0.0
2014-Aug-26 13:32N 50°54' W 001°27'0 0.0
2014-Aug-26 12:32N 50°54' W 001°27'0 0.0
2014-Aug-26 11:32N 50°54' W 001°27'0 0.0
2014-Aug-26 10:32N 50°54' W 001°27'0 0.0
2014-Aug-26 09:14N 50°54' W 001°27'0 0.0
2014-Aug-26 08:32N 50°54' W 001°27'0 0.0
2014-Aug-26 07:32N 50°54' W 001°27'0 0.0
2014-Aug-26 06:32N 50°54' W 001°27'2 2.1
2014-Aug-26 05:33N 50°53' W 001°24'9 8.5
2014-Aug-26 04:33N 50°47' W 001°17'1313.0
2014-Aug-26 03:33N 50°42' W 000°57'7 6.7
2014-Aug-26 02:33N 50°36' W 000°53'9 9.3
2014-Aug-26 01:33N 50°35' W 000°39'1915.1
2014-Aug-26 00:19N 50°33' W 000°10'1215.6
2014-Aug-25 23:33N 50°33' E 000°09'1514.7
2014-Aug-25 22:33N 50°34' E 000°32'1414.1
2014-Aug-25 21:33N 50°41' E 000°51'3215.8
2014-Aug-25 19:34N 51°02' E 001°30'1818.2
2014-Aug-25 18:33N 51°16' E 001°49'1717.0
2014-Aug-25 17:33N 51°30' E 002°04'1615.9
2014-Aug-25 16:33N 51°42' E 002°20'10915.3
2014-Aug-25 09:28N 53°05' E 004°16'2117.2
2014-Aug-25 08:16N 53°23' E 004°33'1215.7
2014-Aug-25 07:31N 53°31' E 004°47'1515.8
2014-Aug-25 06:34N 53°36' E 005°12'1615.9
2014-Aug-25 05:34N 53°40' E 005°37'1716.5
2014-Aug-25 04:33N 53°46' E 006°04'5417.9
2014-Aug-25 01:33N 53°59' E 007°32'1313.1
2014-Aug-25 00:33N 53°53' E 007°51'1515.3
2014-Aug-24 23:33N 53°45' E 008°13'1413.9
2014-Aug-24 22:33N 53°36' E 008°31'1 0.7
2014-Aug-24 21:31N 53°35' E 008°32'0 0.0
2014-Aug-24 20:31N 53°35' E 008°32'0 0.0
2014-Aug-24 19:31N 53°35' E 008°32'0 0.0
2014-Aug-24 18:31N 53°35' E 008°32'0 0.0
2014-Aug-24 17:31N 53°35' E 008°32'0 0.0
2014-Aug-24 16:31N 53°35' E 008°32'0 0.0
2014-Aug-24 15:31N 53°35' E 008°32'0 0.0
2014-Aug-24 14:31N 53°35' E 008°32'0 0.0
2014-Aug-24 13:31N 53°35' E 008°32'0 0.0
2014-Aug-24 12:31N 53°35' E 008°32'0 0.0
2014-Aug-24 11:31N 53°35' E 008°32'0 0.0
2014-Aug-24 10:31N 53°35' E 008°32'0 0.0
2014-Aug-24 09:28N 53°35' E 008°32'0 0.0
2014-Aug-24 08:31N 53°35' E 008°32'0 0.0
2014-Aug-24 07:31N 53°35' E 008°32'0 0.0
2014-Aug-24 06:31N 53°35' E 008°32'0 0.0
2014-Aug-24 05:31N 53°35' E 008°32'0 0.0
2014-Aug-24 04:31N 53°35' E 008°32'0 0.0
2014-Aug-24 03:31N 53°35' E 008°32'0 0.0
2014-Aug-24 02:31N 53°35' E 008°32'0 0.0
2014-Aug-24 01:31N 53°35' E 008°32'0 0.0
2014-Aug-24 00:31N 53°35' E 008°32'0 0.0
2014-Aug-23 23:31N 53°35' E 008°32'0 0.0
2014-Aug-23 22:31N 53°35' E 008°32'0 0.0
2014-Aug-23 21:31N 53°35' E 008°32'0 0.0
2014-Aug-23 20:31N 53°35' E 008°32'0 0.0
2014-Aug-23 19:31N 53°35' E 008°32'19812.4
2014-Aug-23 03:33N 52°17' E 003°29'2019.6
2014-Aug-23 02:32N 51°57' E 003°23'1717.3
2014-Aug-23 01:33N 51°42' E 003°12'1818.1
2014-Aug-23 00:33N 51°25' E 002°60'1716.9
2014-Aug-22 23:33N 51°25' E 003°27'1010.0
2014-Aug-22 22:33N 51°24' E 003°43'9 9.2
2014-Aug-22 21:33N 51°24' E 003°57'8 8.3
2014-Aug-22 20:33N 51°24' E 004°11'5 5.1
2014-Aug-22 19:33N 51°20' E 004°17'0 0.0
2014-Aug-22 18:33N 51°20' E 004°17'0 0.0
2014-Aug-22 17:33N 51°20' E 004°17'0 0.0
2014-Aug-22 16:33N 51°20' E 004°17'0 0.0
2014-Aug-22 15:33N 51°20' E 004°17'0 0.0
2014-Aug-22 14:33N 51°20' E 004°17'0 0.0
2014-Aug-22 13:33N 51°20' E 004°17'0 0.0
2014-Aug-22 12:33N 51°20' E 004°17'0 0.0
2014-Aug-22 11:33N 51°20' E 004°17'0 0.0
2014-Aug-22 10:33N 51°20' E 004°17'0 0.0
2014-Aug-22 09:33N 51°20' E 004°17'0 0.0
2014-Aug-22 08:33N 51°20' E 004°17'0 0.0
2014-Aug-22 07:33N 51°20' E 004°17'0 0.0
2014-Aug-22 06:33N 51°20' E 004°17'0 0.0
2014-Aug-22 05:33N 51°20' E 004°17'0 0.0
2014-Aug-22 04:33N 51°20' E 004°17'0 0.0
2014-Aug-22 03:33N 51°20' E 004°17'0 0.0
2014-Aug-22 02:33N 51°20' E 004°17'0 0.0
2014-Aug-22 01:33N 51°20' E 004°17'0 0.0
2014-Aug-22 00:33N 51°20' E 004°17'0 0.0
2014-Aug-21 23:33N 51°20' E 004°17'0 0.0
2014-Aug-21 22:33N 51°20' E 004°17'0 0.0
2014-Aug-21 21:33N 51°20' E 004°17'0 0.0
2014-Aug-21 20:33N 51°20' E 004°17'0 0.0
2014-Aug-21 19:33N 51°20' E 004°17'2 2.2
2014-Aug-21 18:33N 51°22' E 004°14'8 8.2
2014-Aug-21 17:33N 51°25' E 004°02'10 9.7
2014-Aug-21 16:33N 51°21' E 003°48'10 9.8
2014-Aug-21 15:33N 51°25' E 003°33'1413.9
2014-Aug-21 14:34N 51°24' E 003°11'1616.0
2014-Aug-21 13:34N 51°24' E 002°46'7 6.8
2014-Aug-21 12:31N 51°25' E 002°34'0 0.3
2014-Aug-21 11:29N 51°25' E 002°35'0 0.0
2014-Aug-21 10:17N 51°25' E 002°35'0 0.0
2014-Aug-21 09:29N 51°25' E 002°35'0 0.0
2014-Aug-21 08:32N 51°25' E 002°35'0 0.1
2014-Aug-21 07:32N 51°25' E 002°35'0 0.2
2014-Aug-21 06:32N 51°25' E 002°34'0 0.0
2014-Aug-21 05:32N 51°25' E 002°34'0 0.1
2014-Aug-21 04:32N 51°25' E 002°34'7 7.1
2014-Aug-21 03:33N 51°21' E 002°25'1312.8
2014-Aug-21 02:32N 51°14' E 002°08'1313.1
2014-Aug-21 01:33N 51°08' E 001°50'1313.2
2014-Aug-21 00:33N 50°59' E 001°34'1613.7
2014-Aug-20 23:23N 50°45' E 001°23'1613.5
2014-Aug-20 22:10N 50°33' E 001°05'813.3
2014-Aug-20 21:33N 50°29' E 000°54'1713.9
2014-Aug-20 20:19N 50°25' E 000°28'1114.1
2014-Aug-20 19:33N 50°22' E 000°12'  

Dump ship's entire track history